Time;durP1;ratioP1;P1;durP2;ratioP2;P2;SDS_P1;SDS_P2;PMS_P1;PMS_P2;Temp;Humidity;BMP_temperature;BMP_pressure;BME280_temperature;BME280_humidity;BME280_pressure;Samples;Min_cycle;Max_cycle;Signal;HPM_P1;HPM_P2
2021/12/07 00:01:54;;;;;;;10.70;5.93;;;2.30;99.90;;;0.53;100.00;100028.91;2571026;30;138275;-39
2021/12/07 00:04:23;;;;;;;10.85;5.63;;;2.30;99.90;;;0.53;100.00;100045.88;2569132;30;136890;-39
2021/12/07 00:06:51;;;;;;;12.70;7.03;;;2.40;99.90;;;0.53;100.00;100036.97;2571062;30;138438;-39
2021/12/07 00:09:20;;;;;;;10.70;6.07;;;2.30;99.90;;;0.53;100.00;100027.09;2568246;30;136867;-40
2021/12/07 00:11:49;;;;;;;11.63;6.28;;;2.30;99.90;;;0.51;100.00;100031.78;2571044;30;139213;-39
2021/12/07 00:14:26;;;;;;;11.27;6.40;;;2.40;99.90;;;0.56;100.00;100042.03;2569521;30;137261;-38
2021/12/07 00:16:55;;;;;;;9.45;5.97;;;2.40;99.90;;;0.56;100.00;100044.72;2568992;30;138957;-39
2021/12/07 00:19:23;;;;;;;10.75;6.20;;;2.40;99.90;;;0.64;100.00;100047.41;2571009;30;136885;-40
2021/12/07 00:21:51;;;;;;;11.35;6.20;;;2.40;99.90;;;0.67;100.00;100044.38;2566310;30;138175;-39
2021/12/07 00:24:19;;;;;;;10.75;6.53;;;2.50;99.90;;;0.64;100.00;100042.03;2569959;30;137785;-39
2021/12/07 00:26:47;;;;;;;10.10;5.95;;;2.50;99.90;;;0.59;100.00;100046.22;2569690;30;138136;-39
2021/12/07 00:29:15;;;;;;;11.00;6.03;;;2.50;99.90;;;0.62;100.00;100053.94;2570633;30;137719;-39
2021/12/07 00:31:52;;;;;;;;;;;2.40;99.90;;;0.64;100.00;100054.59;2570031;30;138317;-39
2021/12/07 00:36:55;;;;;;;11.73;5.85;;;2.50;99.90;;;0.70;100.00;100057.47;2570469;30;140366;-39
2021/12/07 00:39:25;;;;;;;10.23;5.28;;;2.50;99.90;;;0.63;100.00;100037.66;2570369;30;138143;-39
2021/12/07 00:41:56;;;;;;;8.88;5.05;;;2.50;99.90;;;0.74;100.00;100055.31;2568949;30;138525;-39
2021/12/07 00:44:25;;;;;;;8.85;4.35;;;2.60;99.90;;;0.80;100.00;100069.91;2567265;30;137375;-39
2021/12/07 00:46:55;;;;;;;8.90;4.50;;;2.60;99.90;;;0.80;100.00;100061.84;2568303;30;138360;-39
2021/12/07 00:49:23;;;;;;;8.75;4.35;;;2.60;99.90;;;0.84;100.00;100069.38;2571760;30;136680;-39
2021/12/07 00:51:51;;;;;;;9.00;4.32;;;2.60;99.90;;;0.85;100.00;100076.44;2570610;30;137656;-39
2021/12/07 00:54:19;;;;;;;8.02;4.45;;;2.70;99.90;;;0.85;100.00;100076.44;2568050;30;138367;-38
2021/12/07 00:56:47;;;;;;;7.53;4.38;;;2.70;99.90;;;0.89;100.00;100081.47;2568323;30;139083;-39
2021/12/07 00:59:15;;;;;;;7.22;3.88;;;2.70;99.90;;;0.91;100.00;100083.00;2567247;30;137327;-39
2021/12/07 01:01:43;;;;;;;7.00;4.07;;;2.70;99.90;;;0.88;100.00;100091.41;2568644;30;138500;-39
2021/12/07 01:04:11;;;;;;;8.68;4.20;;;2.70;99.90;;;0.90;100.00;100100.13;2568179;30;139070;-39
2021/12/07 01:06:49;;;;;;;7.03;4.25;;;2.70;99.90;;;0.85;100.00;100092.56;2568507;30;140812;-39
2021/12/07 01:09:31;;;;;;;7.07;4.28;;;2.70;99.90;;;0.81;100.00;100096.59;2569427;30;137346;-39
2021/12/07 01:25:58;;;;;;;8.07;4.22;;;2.40;99.90;;;0.55;100.00;100137.81;2569551;30;137358;-39
2021/12/07 01:28:36;;;;;;;6.57;4.00;;;2.40;99.90;;;0.51;100.00;100141.00;2570381;30;139370;-39
2021/12/07 01:31:26;;;;;;;7.32;4.40;;;2.40;99.90;;;0.47;100.00;100128.91;2571211;30;139271;-39
2021/12/07 01:37:24;;;;;;;6.60;4.13;;;2.30;99.90;;;0.45;100.00;100144.34;2566269;30;137439;-39
2021/12/07 01:47:59;;;;;;;11.25;6.28;;;2.40;99.90;;;0.63;100.00;100165.69;2569640;30;139989;-39
2021/12/07 02:01:32;;;;;;;13.55;8.00;;;2.50;99.90;;;0.79;100.00;100184.53;2570256;30;137402;-39
2021/12/07 02:04:00;;;;;;;13.30;8.15;;;2.60;99.90;;;0.81;100.00;100201.34;2568371;30;138247;-40
2021/12/07 02:06:28;;;;;;;13.50;7.97;;;2.60;99.90;;;0.82;100.00;100186.06;2570780;30;137393;-39
2021/12/07 02:08:56;;;;;;;14.40;8.13;;;2.60;99.90;;;0.91;100.00;100209.25;2569340;30;137898;-39
2021/12/07 02:11:27;;;;;;;17.05;9.27;;;2.70;99.90;;;0.98;100.00;100204.06;2568551;30;138173;-39
2021/12/07 02:16:29;;;;;;;;;;;2.80;99.90;;;1.12;100.00;100210.63;2569821;30;138318;-39
2021/12/07 02:18:59;;;;;;;13.43;7.78;;;2.90;99.90;;;1.21;100.00;100206.13;2571658;30;137369;-39
2021/12/07 02:21:27;;;;;;;16.30;8.43;;;3.00;99.90;;;1.22;100.00;100203.25;2568893;30;138179;-39
2021/12/07 02:24:09;;;;;;;14.75;8.18;;;3.00;99.90;;;1.24;100.00;100212.00;2568914;30;138896;-39
2021/12/07 02:26:37;;;;;;;;;;;3.00;99.90;;;1.33;100.00;100210.16;2568275;30;139665;-39
2021/12/07 02:29:06;;;;;;;12.65;7.22;;;3.10;99.90;;;1.34;100.00;100225.28;2569513;30;137184;-39
2021/12/07 02:31:35;;;;;;;15.10;7.50;;;3.10;99.90;;;1.37;100.00;100218.72;2565957;30;137940;-39
2021/12/07 02:34:04;;;;;;;14.43;8.45;;;3.20;99.90;;;1.43;100.00;100223.44;2569584;30;137569;-39
2021/12/07 02:36:33;;;;;;;17.55;8.43;;;3.20;99.90;;;1.42;100.00;100216.38;2569260;30;139669;-39
2021/12/07 02:39:01;;;;;;;15.68;8.52;;;3.20;99.90;;;1.47;100.00;100237.41;2568657;30;139065;-39
2021/12/07 02:41:29;;;;;;;18.88;9.20;;;3.20;99.90;;;1.54;100.00;100239.22;2568701;30;139865;-39
2021/12/07 02:43:56;;;;;;;;;;;3.30;99.90;;;1.57;100.00;100248.81;2570768;30;137548;-40
2021/12/07 02:46:24;;;;;;;14.52;8.57;;;3.30;99.90;;;1.71;100.00;100260.75;2570479;30;141273;-39
2021/12/07 02:48:55;;;;;;;21.83;10.68;;;3.40;99.90;;;1.81;100.00;100274.84;2569324;30;137315;-39
2021/12/07 02:51:24;;;;;;;17.45;10.82;;;3.50;99.90;;;1.93;100.00;100280.75;2571625;30;140759;-39
2021/12/07 02:53:54;;;;;;;23.90;10.55;;;3.60;99.90;;;1.92;100.00;100281.75;2569160;30;138925;-39
2021/12/07 02:56:22;;;;;;;20.58;10.30;;;3.70;99.90;;;1.94;100.00;100290.50;2565746;30;140314;-39
2021/12/07 02:58:51;;;;;;;;;;;3.70;99.90;;;2.00;100.00;100283.59;2569803;30;139228;-39
2021/12/07 03:01:26;;;;;;;19.08;7.85;;;3.70;99.90;;;1.98;100.00;100286.44;2571454;30;139468;-39
2021/12/07 03:06:37;;;;;;;;;;;3.70;99.90;;;1.96;100.00;100287.66;2568550;30;139674;-39
2021/12/07 03:25:52;;;;;;;23.38;13.00;;;3.70;99.90;;;1.97;100.00;100308.16;2568452;30;137422;-38
2021/12/07 03:28:23;;;;;;;20.02;12.13;;;3.70;99.90;;;1.97;100.00;100310.84;2567205;30;139005;-38
2021/12/07 03:30:51;;;;;;;23.90;11.52;;;3.70;99.90;;;2.01;100.00;100312.19;2567281;30;138896;-38
2021/12/07 03:33:18;;;;;;;23.42;12.82;;;3.70;99.90;;;1.99;100.00;100324.97;2569014;30;137092;-38
2021/12/07 03:35:49;;;;;;;17.90;11.35;;;3.80;99.90;;;1.97;100.00;100333.19;2567211;30;139120;-38
2021/12/07 03:38:17;;;;;;;20.00;12.73;;;3.70;99.90;;;1.96;100.00;100344.97;2566800;30;138462;-38
2021/12/07 03:40:45;;;;;;;24.17;12.85;;;3.70;99.90;;;1.93;100.00;100348.00;2563933;30;138637;-38
2021/12/07 03:43:14;;;;;;;21.13;12.23;;;3.70;99.90;;;1.91;100.00;100349.19;2567502;30;139720;-38
2021/12/07 03:45:43;;;;;;;21.58;12.38;;;3.70;99.90;;;1.89;100.00;100348.53;2567092;30;139101;-38
2021/12/07 03:48:13;;;;;;;24.13;12.73;;;3.70;99.90;;;1.83;100.00;100350.84;2565521;30;139241;-38
2021/12/07 03:50:41;;;;;;;22.25;12.18;;;3.60;99.90;;;1.79;100.00;100352.19;2568411;30;137795;-38
2021/12/07 03:53:11;;;;;;;21.60;12.05;;;3.60;99.90;;;1.76;100.00;100355.22;2567114;30;139384;-38
2021/12/07 03:55:40;;;;;;;21.27;12.55;;;3.60;99.90;;;1.72;100.00;100356.56;2567624;30;139138;-38
2021/12/07 03:58:07;;;;;;;20.40;12.55;;;3.50;99.90;;;1.65;100.00;100363.63;2568332;30;137535;-38
2021/12/07 04:00:44;;;;;;;19.48;11.50;;;3.50;99.90;;;1.62;100.00;100362.09;2564749;30;138892;-38
2021/12/07 04:03:15;;;;;;;16.58;10.27;;;3.40;99.90;;;1.56;100.00;100360.91;2566533;30;139320;-38
2021/12/07 04:05:53;;;;;;;20.13;10.45;;;3.40;99.90;;;1.47;100.00;100364.59;2566874;30;140471;-38
2021/12/07 04:08:26;;;;;;;18.65;10.52;;;3.30;99.90;;;1.51;100.00;100373.19;2568066;30;138547;-38
2021/12/07 04:10:57;;;;;;;20.05;9.68;;;3.30;99.90;;;1.46;100.00;100379.03;2568384;30;138624;-38
2021/12/07 04:13:26;;;;;;;16.17;8.50;;;3.30;99.90;;;1.44;100.00;100383.72;2567424;30;138261;-38
2021/12/07 04:15:54;;;;;;;22.27;9.27;;;3.20;99.90;;;1.40;100.00;100385.06;2567423;30;137716;-38
2021/12/07 04:18:22;;;;;;;17.83;8.77;;;3.20;99.90;;;1.34;100.00;100385.72;2567078;30;139176;-38
2021/12/07 04:20:49;;;;;;;17.75;8.18;;;3.20;99.90;;;1.40;100.00;100385.06;2564767;30;139873;-38
2021/12/07 04:23:17;;;;;;;14.27;7.88;;;3.20;99.90;;;1.46;100.00;100388.94;2568234;30;139461;-38
2021/12/07 04:25:45;;;;;;;20.42;7.68;;;3.20;99.90;;;1.46;100.00;100395.16;2567006;30;137937;-38
2021/12/07 04:28:12;;;;;;;16.48;7.20;;;3.20;99.90;;;1.45;100.00;100398.84;2568390;30;138271;-38
2021/12/07 04:30:43;;;;;;;18.17;6.68;;;3.20;99.90;;;1.40;100.00;100402.03;2566062;30;137268;-38
2021/12/07 04:33:13;;;;;;;14.98;6.38;;;3.20;99.90;;;1.45;100.00;100406.94;2568410;30;137435;-38
2021/12/07 04:35:46;;;;;;;15.02;5.43;;;3.20;99.90;;;1.50;100.00;100404.59;2564868;30;136872;-38
2021/12/07 04:38:14;;;;;;;16.52;5.43;;;3.20;99.90;;;1.57;100.00;100412.84;2568611;30;138018;-38
2021/12/07 04:40:43;;;;;;;15.48;5.07;;;3.30;99.90;;;1.70;100.00;100413.19;2567831;30;138481;-38
2021/12/07 04:43:11;;;;;;;13.13;4.93;;;3.40;99.90;;;1.74;100.00;100423.66;2567962;30;138443;-38
2021/12/07 04:59:01;;;;;;;14.63;3.75;;;3.50;99.90;;;1.72;100.00;100424.66;2567839;30;137211;-38
2021/12/07 05:01:31;;;;;;;13.13;3.65;;;3.50;99.90;;;1.69;100.00;100422.28;2568353;30;137436;-38
2021/12/07 05:04:04;;;;;;;12.57;3.75;;;3.50;99.90;;;1.68;100.00;100425.97;2568407;30;137439;-38
2021/12/07 05:06:34;;;;;;;11.13;4.00;;;3.50;99.90;;;1.61;100.00;100435.72;2568129;30;137774;-38
2021/12/07 05:09:22;;;;;;;11.77;4.32;;;3.40;99.90;;;1.59;100.00;100432.34;2565770;30;138237;-38
2021/12/07 05:12:19;;;;;;;12.97;3.70;;;3.40;99.90;;;1.53;100.00;100438.38;2568683;30;136958;-38
2021/12/07 05:14:44;;;;;;;13.65;3.35;;;3.40;99.90;;;1.64;100.00;100456.06;2567601;30;138205;-38
2021/12/07 05:38:52;;;;;;;14.80;4.30;;;3.40;99.90;;;1.61;100.00;100476.06;2568214;30;137127;-38
2021/12/07 05:41:20;;;;;;;10.02;4.30;;;3.40;99.90;;;1.54;100.00;100472.34;2568540;30;139300;-38
2021/12/07 05:43:47;;;;;;;15.98;4.57;;;3.40;99.90;;;1.53;100.00;100489.47;2566683;30;137495;-38
2021/12/07 05:46:15;;;;;;;16.80;4.68;;;3.30;99.90;;;1.59;100.00;100499.59;2568672;30;139164;-38
2021/12/07 05:48:43;;;;;;;14.05;4.63;;;3.40;99.90;;;1.59;100.00;100507.66;2569755;30;138723;-38
2021/12/07 05:51:11;;;;;;;17.20;5.20;;;3.40;99.90;;;1.56;100.00;100508.81;2566609;30;138595;-38
2021/12/07 05:53:38;;;;;;;15.73;4.85;;;3.30;99.90;;;1.55;100.00;100511.66;2568466;30;137380;-38
2021/12/07 05:56:06;;;;;;;13.95;4.72;;;3.30;99.90;;;1.53;100.00;100506.44;2566096;30;138644;-38
2021/12/07 05:58:33;;;;;;;12.20;4.05;;;3.40;99.90;;;1.62;100.00;100515.38;2568452;30;137495;-38
2021/12/07 06:01:01;;;;;;;13.57;4.55;;;3.40;99.90;;;1.58;100.00;100532.84;2566617;30;138751;-38
2021/12/07 06:03:29;;;;;;;;;;;3.40;99.90;;;1.56;100.00;100541.06;2568286;30;138134;-38
2021/12/07 06:06:01;;;;;;;14.40;4.13;;;3.40;99.90;;;1.57;100.00;100537.38;2567573;30;137845;-38
2021/12/07 06:08:30;;;;;;;13.80;3.78;;;3.40;99.90;;;1.54;100.00;100548.47;2567900;30;136906;-38
2021/12/07 06:10:58;;;;;;;12.30;3.50;;;3.30;99.90;;;1.50;100.00;100549.78;2568680;30;138176;-38
2021/12/07 06:13:26;;;;;;;13.02;3.42;;;3.30;99.90;;;1.40;100.00;100549.91;2569539;30;137531;-38
2021/12/07 06:15:53;;;;;;;13.70;3.92;;;3.30;99.90;;;1.54;100.00;100556.53;2567979;30;137075;-39
2021/12/07 06:18:21;;;;;;;12.82;3.63;;;3.30;99.90;;;1.60;100.00;100555.06;2565363;30;137490;-38
2021/12/07 06:20:49;;;;;;;14.13;3.85;;;3.40;99.90;;;1.62;100.00;100560.28;2568600;30;138387;-38
2021/12/07 06:23:18;;;;;;;12.90;3.85;;;3.40;99.90;;;1.60;100.00;100568.50;2567286;30;137789;-38
2021/12/07 06:25:48;;;;;;;12.02;3.38;;;3.40;99.90;;;1.54;100.00;100559.22;2567965;30;139023;-38
2021/12/07 06:28:17;;;;;;;14.38;3.60;;;3.40;99.90;;;1.51;100.00;100559.53;2567477;30;138458;-38
2021/12/07 06:30:48;;;;;;;16.40;3.85;;;3.30;99.90;;;1.51;100.00;100564.09;2567679;30;139145;-38
2021/12/07 06:33:21;;;;;;;14.15;3.45;;;3.30;99.90;;;1.53;100.00;100567.47;2568634;30;138273;-38
2021/12/07 06:35:57;;;;;;;14.82;3.67;;;3.30;99.90;;;1.56;100.00;100581.41;2569049;30;138599;-38
2021/12/07 06:38:28;;;;;;;13.93;3.78;;;3.30;99.90;;;1.65;100.00;100581.47;2568733;30;137348;-38
2021/12/07 06:40:57;;;;;;;12.80;3.38;;;3.40;99.90;;;1.69;100.00;100580.16;2568516;30;138997;-38
2021/12/07 06:43:25;;;;;;;10.38;3.28;;;3.40;99.90;;;1.62;100.00;100587.19;2566990;30;137612;-38
2021/12/07 06:45:53;;;;;;;;;;;3.40;99.90;;;1.60;100.00;100567.66;2565682;30;138613;-38
2021/12/07 06:48:21;;;;;;;11.13;3.80;;;3.40;99.90;;;1.48;100.00;100559.84;2567611;30;138748;-38
2021/12/07 06:50:49;;;;;;;13.13;3.70;;;3.40;99.90;;;1.51;100.00;100578.34;2568729;30;139495;-38
2021/12/07 06:53:16;;;;;;;10.38;3.28;;;3.30;99.90;;;1.48;100.00;100567.94;2568248;30;137712;-38
2021/12/07 06:55:44;;;;;;;11.27;3.70;;;3.30;99.90;;;1.45;100.00;100565.56;2567870;30;138232;-38
2021/12/07 06:58:12;;;;;;;16.33;3.80;;;3.30;99.90;;;1.47;100.00;100579.69;2567941;30;136760;-38
2021/12/07 07:00:42;;;;;;;15.43;3.60;;;3.30;99.90;;;1.43;100.00;100583.69;2567258;30;137461;-38
2021/12/07 07:03:10;;;;;;;11.85;3.50;;;3.30;99.90;;;1.39;100.00;100577.78;2567095;30;137591;-38
2021/12/07 07:05:37;;;;;;;14.10;3.72;;;3.20;99.90;;;1.33;100.00;100591.03;2569125;30;137119;-39
2021/12/07 07:08:06;;;;;;;13.55;4.03;;;3.20;99.90;;;1.27;100.00;100587.94;2567143;30;137576;-38
2021/12/07 07:10:34;;;;;;;9.38;3.00;;;3.10;99.90;;;1.21;100.00;100577.84;2568139;30;138205;-38
2021/12/07 07:13:02;;;;;;;10.88;3.83;;;3.10;99.90;;;1.26;100.00;100580.06;2568707;30;138415;-38
2021/12/07 07:15:30;;;;;;;12.73;3.67;;;3.10;99.90;;;1.17;100.00;100579.16;2566991;30;137191;-38
2021/12/07 07:17:57;;;;;;;14.27;4.57;;;3.00;99.90;;;1.11;100.00;100585.16;2567766;30;137392;-38
2021/12/07 07:20:25;;;;;;;12.18;4.32;;;3.00;99.90;;;1.11;100.00;100585.16;2568730;30;137317;-38
2021/12/07 07:22:54;;;;;;;11.13;3.95;;;2.90;99.90;;;1.06;100.00;100593.69;2565868;30;137089;-38
2021/12/07 07:25:22;;;;;;;12.98;3.70;;;2.90;99.90;;;1.00;100.00;100605.06;2567094;30;138344;-38
2021/12/07 07:27:50;;;;;;;9.70;3.90;;;2.80;99.90;;;1.01;100.00;100601.38;2568437;30;138306;-38
2021/12/07 07:30:19;;;;;;;;;;;2.80;99.90;;;1.00;100.00;100605.06;2569118;30;138384;-38
2021/12/07 07:32:48;;;;;;;12.77;3.90;;;2.80;99.90;;;0.99;100.00;100614.13;2566033;30;137440;-38
2021/12/07 07:35:18;;;;;;;15.90;4.30;;;2.80;99.90;;;0.97;100.00;100614.25;2566935;30;137821;-38
2021/12/07 07:37:46;;;;;;;10.25;4.13;;;2.80;99.90;;;0.91;100.00;100614.88;2567634;30;136982;-38
2021/12/07 07:40:19;;;;;;;13.88;4.03;;;2.80;99.90;;;0.84;100.00;100619.19;2567855;30;138921;-38
2021/12/07 07:42:47;;;;;;;11.52;4.05;;;2.70;99.90;;;0.86;100.00;100623.41;2568213;30;138299;-38
2021/12/07 07:45:49;;;;;;;12.38;4.15;;;2.70;99.90;;;0.77;100.00;100616.28;2567388;30;137103;-38
2021/12/07 07:48:52;;;;;;;14.43;4.38;;;2.70;99.90;;;0.72;100.00;100607.84;2568590;30;137627;-38
2021/12/07 07:51:20;;;;;;;16.55;4.15;;;2.60;99.90;;;0.69;100.00;100624.25;2567294;30;139270;-38
2021/12/07 07:54:06;;;;;;;10.35;4.20;;;2.60;99.90;;;0.62;100.00;100618.66;2566135;30;136921;-38
2021/12/07 07:56:36;;;;;;;12.40;3.85;;;2.50;99.90;;;0.64;100.00;100622.03;2567962;30;138116;-38
2021/12/07 07:59:04;;;;;;;14.45;4.07;;;2.50;99.90;;;0.60;100.00;100623.31;2567942;30;138535;-38
2021/12/07 08:01:33;;;;;;;8.25;3.65;;;2.40;99.90;;;0.57;100.00;100621.78;2566748;30;139657;-39
2021/12/07 08:04:03;;;;;;;15.23;3.90;;;2.40;99.90;;;0.61;100.00;100633.06;2567606;30;137366;-38
2021/12/07 08:06:33;;;;;;;11.77;4.20;;;2.40;99.90;;;0.57;100.00;100627.16;2568483;30;139480;-39
2021/12/07 08:09:03;;;;;;;15.75;4.20;;;2.50;99.90;;;0.55;100.00;100623.78;2568538;30;136679;-38
2021/12/07 08:11:31;;;;;;;11.40;4.43;;;2.40;99.90;;;0.61;100.00;100624.16;2567822;30;137548;-38
2021/12/07 08:13:59;;;;;;;11.35;3.88;;;2.40;99.90;;;0.56;100.00;100627.31;2567241;30;136713;-38
2021/12/07 08:16:28;;;;;;;13.35;3.95;;;2.40;99.90;;;0.59;100.00;100618.94;2567826;30;138683;-38
2021/12/07 08:18:56;;;;;;;11.25;3.70;;;2.40;99.90;;;0.61;100.00;100630.38;2567762;30;136945;-38
2021/12/07 08:21:27;;;;;;;15.27;3.97;;;2.40;99.90;;;0.67;100.00;100632.44;2568036;30;140746;-38
2021/12/07 08:23:55;;;;;;;14.38;4.07;;;2.50;99.90;;;0.78;100.00;100633.22;2567677;30;138206;-39
2021/12/07 08:26:25;;;;;;;9.90;3.28;;;2.50;99.90;;;0.78;100.00;100631.38;2567898;30;138401;-39
2021/12/07 08:28:59;;;;;;;8.98;3.28;;;2.60;99.90;;;0.80;100.00;100621.34;2568608;30;137503;-39
2021/12/07 08:31:29;;;;;;;9.93;3.88;;;2.60;99.90;;;0.76;100.00;100616.41;2568281;30;139108;-39
2021/12/07 08:33:57;;;;;;;11.40;3.00;;;2.60;99.90;;;0.80;100.00;100607.91;2568014;30;137490;-39
2021/12/07 08:36:25;;;;;;;12.52;3.30;;;2.60;99.90;;;0.80;100.00;100612.44;2568315;30;138505;-38
2021/12/07 08:38:53;;;;;;;7.55;3.05;;;2.60;99.90;;;0.82;100.00;100615.81;2566224;30;138635;-38
2021/12/07 08:41:21;;;;;;;12.60;3.97;;;2.60;99.90;;;0.86;100.00;100620.72;2568660;30;138285;-38
2021/12/07 08:43:51;;;;;;;9.40;3.30;;;2.60;99.90;;;0.90;100.00;100625.78;2567979;30;136994;-38
2021/12/07 08:46:19;;;;;;;8.85;3.05;;;2.60;99.90;;;0.95;100.00;100632.38;2568253;30;137389;-38
2021/12/07 08:48:47;;;;;;;9.48;3.00;;;2.70;99.90;;;1.04;100.00;100630.63;2565729;30;137529;-38
2021/12/07 08:51:16;;;;;;;11.75;3.63;;;2.80;99.90;;;1.08;100.00;100631.16;2568653;30;138285;-39
2021/12/07 08:53:57;;;;;;;10.73;3.00;;;2.80;99.90;;;1.12;100.00;100632.53;2567380;30;136945;-39
2021/12/07 09:01:57;;;;;;;15.45;3.40;;;3.00;99.90;;;1.44;100.00;100636.47;2567772;30;137466;-39
2021/12/07 09:04:43;;;;;;;10.68;3.05;;;3.10;99.90;;;1.52;100.00;100633.81;2566878;30;137353;-38
2021/12/07 09:07:11;;;;;;;14.02;3.58;;;3.20;99.90;;;1.60;100.00;100642.97;2568016;30;137423;-38
2021/12/07 09:09:42;;;;;;;7.00;2.85;;;3.20;99.90;;;1.65;100.00;100643.34;2568455;30;138295;-39
2021/12/07 09:12:13;;;;;;;11.75;3.08;;;3.30;99.90;;;1.74;100.00;100649.63;2568436;30;137371;-38
2021/12/07 09:14:43;;;;;;;9.90;2.88;;;3.40;99.90;;;1.75;100.00;100652.13;2567622;30;138606;-39
2021/12/07 09:17:14;;;;;;;9.23;2.78;;;3.40;99.90;;;1.82;100.00;100658.56;2567182;30;138981;-38
2021/12/07 09:19:42;;;;;;;12.40;3.47;;;3.50;99.90;;;1.88;100.00;100661.63;2567927;30;137345;-38
2021/12/07 09:22:09;;;;;;;13.23;3.45;;;3.60;99.90;;;1.92;100.00;100660.31;2565196;30;138231;-38
2021/12/07 09:24:52;;;;;;;11.35;2.65;;;3.60;99.90;;;1.98;100.00;100663.19;2568961;30;140189;-37
2021/12/07 09:27:20;;;;;;;11.82;3.00;;;3.70;99.90;;;1.99;100.00;100659.53;2566293;30;138277;-37
2021/12/07 09:29:48;;;;;;;7.90;2.53;;;3.70;99.90;;;2.06;100.00;100657.00;2569062;30;138189;-36
2021/12/07 09:32:15;;;;;;;;;;;3.70;99.90;;;2.10;100.00;100661.06;2566452;30;139052;-37
2021/12/07 09:34:43;;;;;;;11.00;2.75;;;3.70;99.90;;;2.24;100.00;100672.25;2567064;30;136718;-37
2021/12/07 09:37:11;;;;;;;12.73;3.10;;;3.80;99.90;;;2.34;100.00;100664.03;2567942;30;138173;-37
2021/12/07 09:39:39;;;;;;;11.23;3.20;;;3.90;99.90;;;2.41;100.00;100657.84;2567844;30;138226;-37
2021/12/07 09:42:06;;;;;;;;;;;4.00;99.90;;;2.46;100.00;100659.19;2567212;30;137837;-37
2021/12/07 09:44:34;;;;;;;9.77;2.63;;;4.10;99.90;;;2.52;100.00;100664.78;2567531;30;136757;-37
2021/12/07 09:47:02;;;;;;;10.93;2.20;;;4.10;99.90;;;2.57;100.00;100670.53;2565569;30;137252;-37
2021/12/07 09:49:29;;;;;;;15.30;3.42;;;4.20;99.90;;;2.66;100.00;100673.22;2568585;30;136937;-37
2021/12/07 09:52:14;;;;;;;8.32;2.85;;;4.30;99.90;;;2.62;100.00;100672.69;2567307;30;138447;-37
2021/12/07 09:54:42;;;;;;;12.60;2.53;;;4.30;99.90;;;2.63;100.00;100676.25;2566970;30;136964;-37
2021/12/07 09:57:11;;;;;;;6.90;2.45;;;4.30;99.90;;;2.57;100.00;100657.06;2567371;30;139138;-37
2021/12/07 09:59:39;;;;;;;8.98;2.90;;;4.30;99.90;;;2.69;100.00;100665.69;2567239;30;138339;-37
2021/12/07 10:02:12;;;;;;;10.32;2.88;;;4.30;99.90;;;2.73;100.00;100661.63;2566727;30;137330;-37
2021/12/07 10:04:40;;;;;;;11.10;3.10;;;4.40;99.90;;;2.82;100.00;100661.66;2566422;30;137785;-37
2021/12/07 10:07:08;;;;;;;11.32;3.08;;;4.40;99.90;;;2.86;100.00;100657.59;2567195;30;139306;-37
2021/12/07 10:09:37;;;;;;;;;;;4.50;99.90;;;2.90;100.00;100667.03;2568523;30;137060;-37
2021/12/07 10:12:19;;;;;;;9.98;2.65;;;4.50;99.90;;;3.00;100.00;100654.28;2568915;30;139627;-37
2021/12/07 10:14:54;;;;;;;13.32;2.95;;;4.60;99.90;;;3.00;100.00;100645.31;2567746;30;137673;-37
2021/12/07 10:17:29;;;;;;;11.27;2.90;;;4.60;99.90;;;3.06;100.00;100650.06;2567896;30;139287;-37
2021/12/07 10:19:56;;;;;;;8.70;2.85;;;4.70;99.90;;;3.09;100.00;100651.56;2569661;30;137511;-37
2021/12/07 10:22:35;;;;;;;15.00;3.60;;;4.70;99.90;;;3.14;100.00;100644.69;2568876;30;137431;-37
2021/12/07 10:25:26;;;;;;;13.32;3.50;;;4.80;99.90;;;3.20;100.00;100640.47;2567501;30;138406;-37
2021/12/07 10:27:55;;;;;;;9.38;3.38;;;4.80;99.90;;;3.27;100.00;100632.53;2568959;30;137517;-37
2021/12/07 10:30:27;;;;;;;10.90;3.28;;;4.80;99.90;;;3.32;100.00;100624.81;2567536;30;137665;-37
2021/12/07 10:33:05;;;;;;;9.65;3.30;;;4.90;99.90;;;3.38;100.00;100625.94;2568132;30;137178;-37
2021/12/07 10:35:36;;;;;;;14.68;3.10;;;5.00;99.90;;;3.42;100.00;100625.44;2568548;30;138347;-37
2021/12/07 10:38:17;;;;;;;14.48;3.28;;;5.00;99.90;;;3.49;100.00;100628.31;2566798;30;136818;-37
2021/12/07 10:41:08;;;;;;;12.32;2.90;;;5.10;99.90;;;3.53;100.00;100613.47;2569322;30;137474;-37
2021/12/07 10:43:58;;;;;;;11.60;3.42;;;5.10;99.90;;;3.64;100.00;100612.28;2569332;30;138294;-37
2021/12/07 10:46:38;;;;;;;7.68;3.05;;;5.20;99.90;;;3.69;100.00;100617.13;2568898;30;137466;-37
2021/12/07 10:49:13;;;;;;;10.93;2.83;;;5.30;99.90;;;3.73;100.00;100618.50;2565294;30;138323;-37
2021/12/07 10:51:55;;;;;;;11.90;3.08;;;5.30;99.90;;;3.77;100.00;100619.81;2568170;30;137618;-37
2021/12/07 10:54:25;;;;;;;10.93;2.53;;;5.40;99.90;;;3.84;100.00;100612.72;2568291;30;138396;-37
2021/12/07 10:56:53;;;;;;;15.35;3.35;;;5.40;99.90;;;3.89;100.00;100610.34;2565957;30;137920;-37
2021/12/07 10:59:21;;;;;;;10.63;2.58;;;5.50;99.90;;;3.91;100.00;100609.31;2568629;30;137844;-37
2021/12/07 11:01:51;;;;;;;9.75;2.30;;;5.50;99.90;;;3.94;100.00;100607.13;2567557;30;137827;-37
2021/12/07 11:04:35;;;;;;;10.13;2.88;;;5.50;99.90;;;4.01;100.00;100594.59;2566090;30;138907;-37
2021/12/07 11:07:13;;;;;;;8.43;2.33;;;5.60;99.90;;;4.08;100.00;100600.16;2567495;30;138108;-37
2021/12/07 11:09:55;;;;;;;10.45;3.53;;;5.60;99.90;;;4.13;99.85;100592.34;2568390;30;138218;-37
2021/12/07 11:12:24;;;;;;;10.10;2.72;;;5.70;99.90;;;4.17;99.24;100590.97;2567921;30;136828;-37
2021/12/07 11:14:58;;;;;;;8.63;2.55;;;5.80;99.90;;;4.22;98.22;100586.91;2568387;30;139206;-36
2021/12/07 11:17:33;;;;;;;13.15;2.95;;;5.80;99.90;;;4.25;98.74;100581.19;2568121;30;137553;-37
2021/12/07 11:20:05;;;;;;;12.10;3.00;;;5.80;99.90;;;4.26;98.96;100578.28;2567285;30;139218;-37
2021/12/07 11:22:40;;;;;;;10.55;2.25;;;5.90;99.90;;;4.30;99.64;100571.50;2568643;30;137657;-37
2021/12/07 11:25:09;;;;;;;8.80;2.83;;;5.90;99.90;;;4.37;98.36;100559.97;2570835;30;137642;-37
2021/12/07 11:30:34;;;;;;;9.68;2.97;;;6.00;99.90;;;4.39;97.42;100548.00;2568443;30;139093;-37
2021/12/07 11:33:02;;;;;;;9.45;2.45;;;6.00;99.90;;;4.41;97.28;100543.25;2567512;30;137505;-37
2021/12/07 11:35:34;;;;;;;10.40;2.28;;;6.00;99.90;;;4.42;97.04;100546.81;2567648;30;137135;-37
2021/12/07 11:38:06;;;;;;;7.35;2.25;;;6.00;99.90;;;4.49;97.47;100536.09;2567437;30;138424;-37
2021/12/07 11:40:38;;;;;;;12.10;3.35;;;6.10;99.90;;;4.47;97.09;100537.13;2569044;30;139281;-37
2021/12/07 11:43:19;;;;;;;13.30;3.92;;;6.10;99.90;;;4.49;96.81;100534.25;2567006;30;137601;-37
2021/12/07 11:45:47;;;;;;;11.45;3.42;;;6.10;99.90;;;4.53;97.04;100534.75;2567665;30;138515;-37
2021/12/07 11:48:16;;;;;;;9.95;4.00;;;6.10;99.90;;;4.57;95.73;100536.06;2568313;30;137366;-37
2021/12/07 11:50:50;;;;;;;10.23;2.97;;;6.10;99.90;;;4.59;95.48;100536.72;2568184;30;137475;-37
2021/12/07 11:53:21;;;;;;;9.23;2.92;;;6.20;99.90;;;4.61;94.74;100529.28;2568407;30;136823;-37
2021/12/07 11:55:56;;;;;;;7.25;2.53;;;6.20;99.90;;;4.62;92.02;100536.38;2568843;30;138265;-37
2021/12/07 11:58:24;;;;;;;15.73;2.88;;;6.20;99.90;;;4.63;92.17;100526.38;2565978;30;138046;-37
2021/12/07 12:00:57;;;;;;;9.82;2.40;;;6.20;99.90;;;4.61;91.29;100527.41;2568400;30;137213;-35
2021/12/07 12:03:26;;;;;;;12.45;2.70;;;6.20;99.90;;;4.63;91.43;100527.22;2568245;30;136907;-36
2021/12/07 12:05:55;;;;;;;12.95;3.45;;;6.20;99.90;;;4.65;92.00;100518.97;2565876;30;137131;-37
2021/12/07 12:08:25;;;;;;;7.57;2.28;;;6.30;99.90;;;4.65;92.27;100522.50;2569478;30;137719;-37
2021/12/07 12:11:06;;;;;;;9.00;2.08;;;6.20;99.90;;;4.65;90.26;100522.50;2568256;30;138600;-37